Time;durP1;ratioP1;P1;durP2;ratioP2;P2;SDS_P1;SDS_P2;PMS_P1;PMS_P2;Temp;Humidity;BMP_temperature;BMP_pressure;BME280_temperature;BME280_humidity;BME280_pressure;Samples;Min_cycle;Max_cycle;Signal;HPM_P1;HPM_P2
2022/03/22 06:28:24;;;;;;;35.28;17.38;;;6.40;99.90;;;;;;5075017;28;20309;-62
2022/03/22 06:30:50;;;;;;;41.55;19.27;;;6.20;99.90;;;;;;5067055;28;20020;-61
2022/03/22 06:33:17;;;;;;;34.63;18.52;;;6.30;99.90;;;;;;5063405;28;20052;-62
2022/03/22 06:35:44;;;;;;;38.08;18.67;;;6.30;99.90;;;;;;5065048;28;20108;-62
2022/03/22 06:38:10;;;;;;;37.15;18.02;;;6.40;99.90;;;;;;5063011;28;20028;-64
2022/03/22 06:40:38;;;;;;;42.40;19.58;;;6.50;99.90;;;;;;5065041;28;20025;-62
2022/03/22 06:43:06;;;;;;;37.17;19.00;;;6.60;99.90;;;;;;5064188;28;20028;-60
2022/03/22 06:45:31;;;;;;;39.03;18.52;;;6.60;99.90;;;;;;5057981;28;20063;-62
2022/03/22 06:47:57;;;;;;;33.58;17.90;;;6.70;99.90;;;;;;5062577;28;20056;-60
2022/03/22 06:50:24;;;;;;;38.28;17.92;;;6.80;99.90;;;;;;5058767;28;20467;-64
2022/03/22 06:52:50;;;;;;;38.67;19.60;;;6.90;99.90;;;;;;5064762;28;20017;-62
2022/03/22 06:55:16;;;;;;;35.80;17.75;;;7.00;99.90;;;;;;5067481;28;20035;-62
2022/03/22 06:57:42;;;;;;;35.10;17.77;;;7.10;99.90;;;;;;5065637;28;20111;-62
2022/03/22 07:00:10;;;;;;;39.63;18.33;;;7.10;99.90;;;;;;5058441;28;20559;-62
2022/03/22 07:02:39;;;;;;;41.85;18.13;;;7.20;99.90;;;;;;5060881;28;20055;-61
2022/03/22 07:05:06;;;;;;;36.90;17.08;;;7.30;99.90;;;;;;5065465;28;20033;-63
2022/03/22 07:07:32;;;;;;;34.55;16.60;;;7.40;99.90;;;;;;5062062;28;20032;-63
2022/03/22 07:09:58;;;;;;;36.67;17.30;;;7.40;99.90;;;;;;5064900;28;20094;-63
2022/03/22 07:12:23;;;;;;;31.33;16.83;;;7.50;99.90;;;;;;5064035;28;20021;-64
2022/03/22 07:14:49;;;;;;;41.08;19.15;;;7.60;99.90;;;;;;5064499;28;20502;-62
2022/03/22 07:17:15;;;;;;;36.33;16.73;;;7.70;99.90;;;;;;5067998;28;20032;-62
2022/03/22 07:19:40;;;;;;;34.58;16.25;;;7.80;99.90;;;;;;5060125;28;20025;-62
2022/03/22 07:22:06;;;;;;;34.53;16.25;;;7.90;99.90;;;;;;5055380;28;20028;-64
2022/03/22 07:24:33;;;;;;;37.13;16.48;;;8.10;99.90;;;;;;5066951;28;20086;-62
2022/03/22 07:26:59;;;;;;;28.52;15.88;;;8.20;99.90;;;;;;5067431;28;20463;-62
2022/03/22 07:29:24;;;;;;;32.40;17.58;;;8.30;99.90;;;;;;5066345;28;20094;-58
2022/03/22 07:31:50;;;;;;;32.70;16.63;;;8.40;99.90;;;;;;5064036;28;20033;-62
2022/03/22 07:34:18;;;;;;;30.85;16.80;;;8.60;99.90;;;;;;5066857;28;20021;-63
2022/03/22 07:36:47;;;;;;;30.90;16.65;;;8.70;99.90;;;;;;5066727;28;20029;-61
2022/03/22 07:39:14;;;;;;;35.70;18.10;;;8.80;99.90;;;;;;5056537;28;20060;-64
2022/03/22 07:41:43;;;;;;;30.13;16.05;;;8.90;99.90;;;;;;5052759;28;20450;-62
2022/03/22 07:44:12;;;;;;;28.67;16.30;;;8.90;99.90;;;;;;5053645;28;20025;-63
2022/03/22 07:46:39;;;;;;;33.20;14.98;;;9.10;99.90;;;;;;5051966;28;20106;-61
2022/03/22 07:54:33;;;;;;;33.40;16.23;;;9.30;99.90;;;;;;5053731;28;20516;-62
2022/03/22 07:56:58;;;;;;;29.05;16.67;;;9.40;99.90;;;;;;5053674;28;20029;-61
2022/03/22 07:59:25;;;;;;;32.55;17.30;;;9.50;99.90;;;;;;5052745;28;20383;-60
2022/03/22 08:01:51;;;;;;;43.60;16.88;;;9.60;99.90;;;;;;5047163;28;20526;-61
2022/03/22 08:04:17;;;;;;;54.38;19.00;;;9.70;99.90;;;;;;5053015;28;20112;-61
2022/03/22 08:06:43;;;;;;;30.80;15.52;;;9.70;99.90;;;;;;5053391;28;20425;-63
2022/03/22 08:09:09;;;;;;;25.85;14.90;;;9.80;99.90;;;;;;5053034;28;20025;-62
2022/03/22 08:11:35;;;;;;;32.08;16.83;;;9.90;99.90;;;;;;5052549;28;20033;-63
2022/03/22 08:14:02;;;;;;;28.40;15.43;;;10.00;99.90;;;;;;5088967;22;20045;-64
2022/03/22 08:16:28;;;;;;;34.80;16.33;;;10.10;99.90;;;;;;5076641;28;20043;-65
2022/03/22 08:18:54;;;;;;;29.75;15.98;;;10.20;99.90;;;;;;5072001;28;20025;-65
2022/03/22 08:21:20;;;;;;;27.48;16.00;;;10.30;99.90;;;;;;5078680;28;20078;-66
2022/03/22 08:23:45;;;;;;;28.75;16.75;;;10.40;99.90;;;;;;5075351;28;20024;-66
2022/03/22 08:26:11;;;;;;;32.17;17.00;;;10.40;99.90;;;;;;5071764;28;20136;-65
2022/03/22 08:28:37;;;;;;;36.30;17.02;;;10.50;99.90;;;;;;5071903;28;20454;-66
2022/03/22 08:31:03;;;;;;;37.45;17.88;;;10.70;99.90;;;;;;5072024;28;20033;-65
2022/03/22 08:33:29;;;;;;;32.67;16.95;;;10.80;99.90;;;;;;5071421;28;20115;-65
2022/03/22 08:35:54;;;;;;;34.58;16.20;;;10.90;99.90;;;;;;5071212;28;20112;-64
2022/03/22 08:38:21;;;;;;;35.03;16.42;;;11.00;99.90;;;;;;5071990;28;20017;-66
2022/03/22 08:40:48;;;;;;;29.27;15.65;;;11.10;99.90;;;;;;5071499;28;20126;-65
2022/03/22 08:43:14;;;;;;;32.25;15.23;;;11.20;99.90;;;;;;5071811;28;20029;-66
2022/03/22 08:45:39;;;;;;;30.13;16.63;;;11.30;99.90;;;;;;5077801;28;20027;-65
2022/03/22 08:48:10;;;;;;;27.02;16.27;;;11.40;99.90;;;;;;5091029;28;20533;-65
2022/03/22 08:50:37;;;;;;;26.77;15.30;;;11.50;99.90;;;;;;5063585;28;20031;-65
2022/03/22 08:53:03;;;;;;;36.15;16.83;;;11.50;99.90;;;;;;5064738;28;20048;-65
2022/03/22 08:55:29;;;;;;;29.70;15.32;;;11.70;99.90;;;;;;5090046;28;20428;-65
2022/03/22 08:57:55;;;;;;;28.70;16.35;;;11.80;99.90;;;;;;5090566;28;20499;-66
2022/03/22 09:00:22;;;;;;;30.38;16.10;;;11.90;99.90;;;;;;5081952;28;20058;-65
2022/03/22 09:02:49;;;;;;;31.17;16.23;;;12.10;99.90;;;;;;5089361;28;20024;-65
2022/03/22 09:08:01;;;;;;;31.58;16.38;;;12.40;99.90;;;;;;5082400;28;20103;-67
2022/03/22 09:10:30;;;;;;;30.90;16.10;;;12.50;99.90;;;;;;5070117;28;20021;-65
2022/03/22 09:12:56;;;;;;;31.95;16.98;;;12.70;99.90;;;;;;5052999;28;20417;-65
2022/03/22 09:15:25;;;;;;;29.63;16.05;;;12.80;99.90;;;;;;5070758;28;20037;-65
2022/03/22 09:17:52;;;;;;;34.00;15.88;;;12.90;99.90;;;;;;5066198;28;20020;-66
2022/03/22 09:20:19;;;;;;;26.60;15.20;;;13.10;99.90;;;;;;5065428;28;20460;-65
2022/03/22 09:22:48;;;;;;;27.10;16.00;;;13.20;99.90;;;;;;5090748;28;20024;-66
2022/03/22 09:25:14;;;;;;;31.20;15.57;;;13.30;99.90;;;;;;5090086;28;20769;-66
2022/03/22 09:27:43;;;;;;;31.27;16.42;;;13.40;99.90;;;;;;5090040;28;20075;-66
2022/03/22 09:30:10;;;;;;;37.72;16.40;;;13.50;99.90;;;;;;5080174;28;20018;-66
2022/03/22 09:32:37;;;;;;;37.17;17.33;;;13.60;99.90;;;;;;5070566;28;20031;-66
2022/03/22 09:35:06;;;;;;;32.10;17.60;;;13.70;99.90;;;;;;5070283;28;20024;-66
2022/03/22 09:37:39;;;;;;;30.40;17.15;;;13.80;99.90;;;;;;5070076;28;20052;-65
2022/03/22 09:40:06;;;;;;;36.17;18.58;;;13.90;99.90;;;;;;5070097;28;20032;-61
2022/03/22 09:42:32;;;;;;;26.80;16.23;;;14.10;99.90;;;;;;5070625;28;20108;-65
2022/03/22 09:45:01;;;;;;;38.08;17.25;;;14.20;99.90;;;;;;5070252;28;20442;-65
2022/03/22 09:47:28;;;;;;;29.27;16.80;;;14.30;99.90;;;;;;5070317;28;20036;-66
2022/03/22 09:49:55;;;;;;;33.97;17.50;;;14.40;99.90;;;;;;5070234;28;20017;-67
2022/03/22 09:52:21;;;;;;;28.10;17.40;;;14.50;99.90;;;;;;5070087;28;20037;-65
2022/03/22 09:54:47;;;;;;;30.70;18.38;;;14.70;99.90;;;;;;5069843;28;20017;-66
2022/03/22 09:57:13;;;;;;;32.05;17.85;;;14.80;99.90;;;;;;5070286;28;20033;-66
2022/03/22 09:59:39;;;;;;;25.25;15.85;;;15.00;99.90;;;;;;5070411;28;20577;-65
2022/03/22 10:02:05;;;;;;;27.35;16.88;;;15.20;99.90;;;;;;5079422;28;20032;-66
2022/03/22 10:04:39;;;;;;;31.35;16.92;;;15.40;99.90;;;;;;5089043;28;20051;-65
2022/03/22 10:07:06;;;;;;;;;;;15.50;99.90;;;;;;5089802;28;20027;-66
2022/03/22 10:09:36;;;;;;;30.23;16.83;;;15.70;99.90;;;;;;5089422;28;19912;-66
2022/03/22 10:12:03;;;;;;;29.00;16.75;;;16.00;99.90;;;;;;5089737;28;20054;-65
2022/03/22 10:14:34;;;;;;;27.13;16.63;;;16.10;99.20;;;;;;5072153;28;20117;-65
2022/03/22 10:17:08;;;;;;;27.70;15.30;;;16.20;97.20;;;;;;5069652;28;20029;-65
2022/03/22 10:19:39;;;;;;;;;;;16.30;97.40;;;;;;5073163;28;20028;-67
2022/03/22 10:22:08;;;;;;;30.08;15.27;;;16.50;95.60;;;;;;5070519;28;19916;-66
2022/03/22 10:24:48;;;;;;;23.55;15.52;;;16.60;96.80;;;;;;5069000;28;20016;-66
2022/03/22 10:27:28;;;;;;;30.30;16.45;;;16.70;93.40;;;;;;5072131;28;20054;-66
2022/03/22 10:29:56;;;;;;;35.95;16.15;;;16.80;92.20;;;;;;5069193;28;20029;-65
2022/03/22 10:32:35;;;;;;;25.15;16.25;;;16.90;92.30;;;;;;5069504;28;20032;-66
2022/03/22 10:35:25;;;;;;;33.05;15.82;;;17.10;92.60;;;;;;5084882;28;20139;-65
2022/03/22 10:38:03;;;;;;;24.70;14.60;;;17.20;92.70;;;;;;5078678;28;20036;-65
2022/03/22 10:40:40;;;;;;;20.98;12.93;;;17.40;90.60;;;;;;5089202;28;20024;-66
2022/03/22 10:43:17;;;;;;;20.30;12.82;;;17.60;87.00;;;;;;5086812;28;20024;-66
2022/03/22 10:45:52;;;;;;;25.80;13.60;;;17.80;90.40;;;;;;5089072;28;20370;-65
2022/03/22 10:48:20;;;;;;;23.02;12.88;;;17.80;81.30;;;;;;5071243;28;20035;-65
2022/03/22 10:50:47;;;;;;;21.52;12.68;;;17.90;85.70;;;;;;5069034;28;20653;-65
2022/03/22 10:53:18;;;;;;;22.40;12.63;;;17.80;82.40;;;;;;5069553;28;20051;-66
2022/03/22 10:55:45;;;;;;;23.52;13.50;;;18.00;80.70;;;;;;5065146;28;20661;-66
2022/03/22 10:58:18;;;;;;;23.67;13.90;;;18.00;77.70;;;;;;5069176;28;20111;-66
2022/03/22 11:00:45;;;;;;;22.20;13.60;;;18.10;77.00;;;;;;5074595;28;20023;-65
2022/03/22 11:03:14;;;;;;;16.58;11.70;;;18.10;78.80;;;;;;5073074;28;20047;-65
2022/03/22 11:05:41;;;;;;;26.10;13.40;;;18.20;79.30;;;;;;5068351;28;20024;-65
2022/03/22 11:08:07;;;;;;;26.75;14.20;;;18.40;79.20;;;;;;5069220;28;20036;-65
2022/03/22 11:10:33;;;;;;;22.80;13.73;;;18.50;79.80;;;;;;5070710;28;20064;-64
2022/03/22 11:12:59;;;;;;;24.40;15.00;;;18.50;77.30;;;;;;5074693;28;20060;-65
2022/03/22 11:15:28;;;;;;;24.63;14.05;;;18.60;79.60;;;;;;5084528;28;20028;-67
2022/03/22 11:17:54;;;;;;;25.98;14.43;;;18.80;79.10;;;;;;5067792;28;20025;-64
2022/03/22 11:20:23;;;;;;;22.58;14.00;;;18.90;78.00;;;;;;5072474;28;20028;-64
2022/03/22 11:22:55;;;;;;;25.67;14.38;;;18.80;80.10;;;;;;5072893;28;20675;-64
2022/03/22 11:25:35;;;;;;;23.13;14.88;;;18.70;77.60;;;;;;5076874;28;20032;-64
2022/03/22 11:28:09;;;;;;;22.38;14.57;;;18.80;74.10;;;;;;5069553;28;20044;-66
2022/03/22 11:30:36;;;;;;;24.55;14.30;;;18.60;75.60;;;;;;5077171;28;20032;-64
2022/03/22 11:35:57;;;;;;;26.65;14.35;;;19.00;74.60;;;;;;5073069;28;20078;-64
2022/03/22 11:38:56;;;;;;;24.95;15.18;;;19.00;76.50;;;;;;5077703;28;20032;-64
2022/03/22 11:44:36;;;;;;;24.65;14.10;;;19.60;73.60;;;;;;5079977;28;20055;-65
2022/03/22 11:47:14;;;;;;;22.73;13.50;;;19.50;73.50;;;;;;5082714;28;20051;-64
2022/03/22 11:50:05;;;;;;;21.27;11.93;;;19.60;72.20;;;;;;5080926;28;20021;-64
2022/03/22 11:52:37;;;;;;;19.70;12.63;;;19.70;73.10;;;;;;5074521;28;20036;-65
2022/03/22 11:55:10;;;;;;;23.67;12.57;;;19.60;71.50;;;;;;5071149;28;20509;-64
2022/03/22 11:57:50;;;;;;;19.55;12.70;;;19.90;70.60;;;;;;5074689;28;20036;-64
2022/03/22 12:00:17;;;;;;;22.65;12.38;;;19.80;68.50;;;;;;5072511;28;20063;-65
2022/03/22 12:02:51;;;;;;;20.73;12.27;;;20.00;67.70;;;;;;5072292;28;20089;-65
2022/03/22 12:05:17;;;;;;;21.73;13.05;;;20.10;67.40;;;;;;5075308;28;20025;-64
2022/03/22 12:07:43;;;;;;;25.85;12.77;;;20.00;67.60;;;;;;5085491;28;20078;-64
2022/03/22 12:10:13;;;;;;;19.25;12.10;;;20.10;70.40;;;;;;5076324;28;20036;-65
2022/03/22 12:12:43;;;;;;;18.70;11.65;;;20.30;66.20;;;;;;5071825;28;20059;-66
2022/03/22 12:15:11;;;;;;;17.98;10.93;;;20.50;67.00;;;;;;5074123;28;20436;-66
2022/03/22 12:17:38;;;;;;;15.30;10.73;;;20.60;66.40;;;;;;5073308;28;20020;-67
2022/03/22 12:20:11;;;;;;;15.23;9.90;;;20.70;62.00;;;;;;5074387;28;20478;-64
2022/03/22 12:22:41;;;;;;;22.70;10.85;;;20.80;67.30;;;;;;5071623;28;20036;-64
2022/03/22 12:25:10;;;;;;;14.27;9.95;;;20.90;61.50;;;;;;5079581;28;20017;-64
2022/03/22 12:27:35;;;;;;;20.50;10.63;;;20.90;67.80;;;;;;5080607;28;20032;-66
2022/03/22 12:30:01;;;;;;;18.80;10.57;;;21.00;63.50;;;;;;5070829;28;20289;-65
2022/03/22 12:32:27;;;;;;;15.30;10.55;;;21.10;66.00;;;;;;5059010;28;20604;-64
2022/03/22 12:34:53;;;;;;;19.50;10.85;;;20.80;61.20;;;;;;5071068;28;20144;-65
2022/03/22 12:37:19;;;;;;;14.90;10.50;;;20.90;64.70;;;;;;5072119;28;20115;-65
2022/03/22 12:39:47;;;;;;;21.50;10.32;;;21.00;60.40;;;;;;5080620;28;20024;-65
2022/03/22 12:42:15;;;;;;;18.60;10.80;;;20.90;60.00;;;;;;5084385;28;20016;-65
2022/03/22 12:44:41;;;;;;;19.95;10.50;;;21.00;59.70;;;;;;5071283;28;20024;-65
2022/03/22 12:47:07;;;;;;;27.33;11.45;;;21.10;60.80;;;;;;5082360;28;20142;-66
2022/03/22 12:49:38;;;;;;;17.40;10.68;;;21.10;59.20;;;;;;5069692;28;20486;-65
2022/03/22 12:52:06;;;;;;;17.25;10.95;;;20.90;58.20;;;;;;5073193;28;20035;-66
2022/03/22 12:54:33;;;;;;;22.50;12.23;;;21.00;57.00;;;;;;5083240;28;20028;-66
2022/03/22 12:57:00;;;;;;;20.73;13.15;;;21.00;56.40;;;;;;5079286;28;20222;-65
2022/03/22 12:59:27;;;;;;;24.42;14.05;;;20.90;58.90;;;;;;5070344;28;20031;-66
2022/03/22 13:01:57;;;;;;;19.00;13.25;;;20.60;55.60;;;;;;5072680;28;20016;-66
2022/03/22 13:04:48;;;;;;;21.10;11.82;;;20.90;60.40;;;;;;5084164;28;20051;-65
2022/03/22 13:07:23;;;;;;;18.20;11.68;;;21.30;58.40;;;;;;5069490;28;20040;-66
2022/03/22 13:12:34;;;;;;;25.38;13.38;;;21.50;58.30;;;;;;5077304;28;19920;-66
2022/03/22 13:15:07;;;;;;;18.27;11.50;;;21.30;57.80;;;;;;5070340;28;20031;-65
2022/03/22 13:17:43;;;;;;;21.73;13.80;;;21.40;57.10;;;;;;5069290;28;20082;-65
2022/03/22 13:20:24;;;;;;;20.58;14.05;;;21.20;55.30;;;;;;5073837;28;20024;-65
2022/03/22 13:22:55;;;;;;;23.90;14.25;;;20.90;54.20;;;;;;5074200;28;20027;-65
2022/03/22 13:25:36;;;;;;;23.88;15.40;;;20.60;56.10;;;;;;5072060;28;20051;-66
2022/03/22 13:28:14;;;;;;;21.58;13.63;;;21.00;57.30;;;;;;5073076;28;20047;-65
2022/03/22 13:30:48;;;;;;;23.13;14.38;;;21.00;57.30;;;;;;5068886;28;20556;-63
2022/03/22 13:33:18;;;;;;;26.10;14.63;;;21.30;58.70;;;;;;5065969;28;20494;-65
2022/03/22 13:35:53;;;;;;;20.02;14.32;;;21.50;56.30;;;;;;5066002;28;20275;-65
2022/03/22 13:38:18;;;;;;;;;;;21.70;55.80;;;;;;5076456;28;20458;-65
2022/03/22 13:40:45;;;;;;;22.42;14.43;;;21.60;56.10;;;;;;5074070;28;19952;-65
2022/03/22 13:43:11;;;;;;;25.40;13.57;;;21.50;55.00;;;;;;5070710;28;20031;-64
2022/03/22 13:45:41;;;;;;;22.83;12.35;;;21.60;53.70;;;;;;5078821;28;20047;-65
2022/03/22 13:48:09;;;;;;;19.80;12.90;;;21.60;53.50;;;;;;5070014;28;20088;-64
2022/03/22 13:50:36;;;;;;;20.58;14.10;;;21.90;55.30;;;;;;5070846;28;20143;-65
2022/03/22 13:53:11;;;;;;;21.65;14.57;;;22.00;57.50;;;;;;5079269;28;20017;-64
2022/03/22 13:55:39;;;;;;;21.05;13.43;;;22.20;55.20;;;;;;5066062;28;20553;-64
2022/03/22 13:58:10;;;;;;;28.00;15.60;;;22.10;55.30;;;;;;5068876;28;20051;-64
2022/03/22 14:00:35;;;;;;;22.63;14.50;;;22.10;57.40;;;;;;5069097;28;20044;-65
2022/03/22 14:03:01;;;;;;;23.38;15.20;;;21.80;54.90;;;;;;5069722;28;20062;-65
2022/03/22 14:05:27;;;;;;;25.95;15.23;;;21.70;55.90;;;;;;5069376;28;20031;-64
2022/03/22 14:07:54;;;;;;;23.23;15.82;;;21.60;56.00;;;;;;5078904;28;20024;-65
2022/03/22 14:10:21;;;;;;;24.42;14.95;;;21.70;55.70;;;;;;5069576;28;20035;-64
2022/03/22 14:12:46;;;;;;;19.63;13.73;;;21.50;54.40;;;;;;5102172;22;20022;-60
2022/03/22 14:15:16;;;;;;;22.67;14.13;;;21.60;55.90;;;;;;5066181;28;20059;-62
2022/03/22 14:17:45;;;;;;;20.63;14.07;;;21.80;57.30;;;;;;5076827;28;20059;-62
2022/03/22 14:20:13;;;;;;;21.13;14.95;;;21.80;56.90;;;;;;5071140;28;20081;-62
2022/03/22 14:22:41;;;;;;;24.48;15.63;;;21.30;53.30;;;;;;5071804;28;20023;-63
2022/03/22 14:25:10;;;;;;;21.70;14.80;;;21.10;54.50;;;;;;5068310;28;20019;-62
2022/03/22 14:27:37;;;;;;;19.30;13.80;;;21.10;55.20;;;;;;5075578;28;20032;-63
2022/03/22 14:30:06;;;;;;;25.20;15.13;;;21.30;57.80;;;;;;5071379;28;20043;-61
2022/03/22 14:32:33;;;;;;;21.85;15.30;;;21.30;56.00;;;;;;5051861;28;20530;-62
2022/03/22 14:37:42;;;;;;;29.52;15.05;;;21.10;53.10;;;;;;5061979;28;20039;-62
2022/03/22 14:40:08;;;;;;;22.55;14.15;;;20.80;57.20;;;;;;5075065;28;20033;-62
2022/03/22 14:42:34;;;;;;;19.45;13.48;;;20.70;55.10;;;;;;5067674;28;20097;-59
2022/03/22 14:45:06;;;;;;;23.08;15.13;;;20.90;56.50;;;;;;5070233;28;20021;-61
2022/03/22 14:47:33;;;;;;;24.42;14.23;;;21.00;54.60;;;;;;5069444;28;20475;-61
2022/03/22 14:49:59;;;;;;;23.02;14.38;;;20.80;57.40;;;;;;5078861;28;20054;-60
2022/03/22 14:55:09;;;;;;;22.25;14.32;;;20.40;54.90;;;;;;5068664;28;20401;-61
2022/03/22 15:00:20;;;;;;;20.42;14.23;;;20.60;54.40;;;;;;5076999;28;20035;-62
2022/03/22 15:02:45;;;;;;;22.10;14.32;;;20.40;58.10;;;;;;5071403;28;20112;-62
2022/03/22 15:07:55;;;;;;;23.42;13.63;;;20.30;58.60;;;;;;5081799;28;20027;-62
2022/03/22 15:10:24;;;;;;;21.67;14.90;;;20.50;55.50;;;;;;5092126;28;20374;-62
2022/03/22 15:12:50;;;;;;;22.73;13.60;;;20.60;57.30;;;;;;5084201;28;20047;-62
2022/03/22 15:15:17;;;;;;;19.90;13.73;;;20.60;57.70;;;;;;5059703;28;20029;-61
2022/03/22 15:17:43;;;;;;;23.15;14.48;;;20.50;57.90;;;;;;5071982;28;20081;-63
2022/03/22 15:20:10;;;;;;;22.08;14.55;;;20.40;56.30;;;;;;5088583;28;20028;-64
2022/03/22 15:22:38;;;;;;;26.42;14.63;;;20.40;56.30;;;;;;5092124;28;20012;-61
2022/03/22 15:25:04;;;;;;;24.98;14.98;;;20.50;57.70;;;;;;5084033;28;20425;-63
2022/03/22 15:27:30;;;;;;;25.73;14.68;;;20.20;56.40;;;;;;5073456;28;20043;-65
2022/03/22 15:29:55;;;;;;;24.00;13.13;;;20.00;57.30;;;;;;5071866;28;20107;-63
2022/03/22 15:32:21;;;;;;;21.52;14.38;;;19.90;55.30;;;;;;5072141;28;20043;-63
2022/03/22 15:34:47;;;;;;;22.75;13.90;;;20.10;57.00;;;;;;5073184;28;20031;-62
2022/03/22 15:37:12;;;;;;;25.13;14.68;;;20.30;57.30;;;;;;5073603;28;20119;-64
2022/03/22 15:39:38;;;;;;;23.85;13.73;;;20.30;58.20;;;;;;5072983;28;20095;-62
2022/03/22 15:42:09;;;;;;;22.63;13.98;;;20.30;59.20;;;;;;5084703;28;20050;-59
2022/03/22 15:44:35;;;;;;;28.15;14.63;;;20.40;57.30;;;;;;5081452;28;20033;-61
2022/03/22 15:47:00;;;;;;;23.35;13.50;;;20.30;56.60;;;;;;5072295;28;20450;-64
2022/03/22 15:49:26;;;;;;;21.63;13.70;;;20.30;58.80;;;;;;5083090;28;20105;-61
2022/03/22 15:51:52;;;;;;;31.38;15.00;;;20.40;58.30;;;;;;5091184;28;20591;-60
2022/03/22 15:54:18;;;;;;;22.55;15.57;;;20.10;58.10;;;;;;5090505;28;20107;-60
2022/03/22 15:56:44;;;;;;;27.17;14.20;;;20.00;58.20;;;;;;5081022;28;20025;-62
2022/03/22 15:59:11;;;;;;;22.02;13.90;;;20.00;59.00;;;;;;5071278;28;20028;-61
2022/03/22 16:01:36;;;;;;;24.35;14.05;;;20.00;59.00;;;;;;5073159;28;20102;-62
2022/03/22 16:04:02;;;;;;;23.85;14.00;;;20.10;58.90;;;;;;5071756;28;20490;-60
2022/03/22 16:06:27;;;;;;;20.90;13.20;;;20.10;59.20;;;;;;5071209;28;20035;-60
2022/03/22 16:08:54;;;;;;;24.58;14.38;;;20.10;59.40;;;;;;5071498;28;20486;-61
2022/03/22 16:11:20;;;;;;;22.05;13.48;;;20.10;57.90;;;;;;5072315;28;20626;-61
2022/03/22 16:13:46;;;;;;;22.17;14.25;;;20.00;57.00;;;;;;5071874;28;20028;-60
2022/03/22 16:16:12;;;;;;;19.90;13.02;;;19.80;58.30;;;;;;5071960;28;20024;-60
2022/03/22 16:18:37;;;;;;;22.67;11.88;;;19.80;59.70;;;;;;5078630;28;20633;-60
2022/03/22 16:21:03;;;;;;;21.45;10.50;;;19.80;58.80;;;;;;5072065;28;20021;-61
2022/03/22 16:23:31;;;;;;;16.48;9.80;;;19.80;56.80;;;;;;5065157;28;20393;-60
2022/03/22 16:25:58;;;;;;;14.93;9.65;;;19.90;56.60;;;;;;5084140;28;20024;-62
2022/03/22 16:28:24;;;;;;;19.15;11.27;;;19.80;58.10;;;;;;5072726;28;20036;-63
2022/03/22 16:30:50;;;;;;;16.60;9.98;;;19.80;55.40;;;;;;5076454;28;20035;-60
2022/03/22 16:41:29;;;;;;;23.90;9.75;;;19.40;57.50;;;;;;5078336;28;20170;-61
2022/03/22 16:43:55;;;;;;;21.38;9.63;;;19.20;57.90;;;;;;5071936;28;20048;-60
2022/03/22 16:46:21;;;;;;;18.73;8.98;;;19.10;58.30;;;;;;5081100;28;20032;-63
2022/03/22 16:48:47;;;;;;;18.73;9.90;;;18.90;59.00;;;;;;5073430;28;20086;-63
2022/03/22 16:51:12;;;;;;;21.23;10.05;;;18.70;57.90;;;;;;5085536;28;20024;-62
2022/03/22 16:53:39;;;;;;;18.55;10.15;;;18.60;58.80;;;;;;5086210;28;20331;-62
2022/03/22 16:56:04;;;;;;;21.10;10.63;;;18.50;58.20;;;;;;5078716;28;20027;-62
2022/03/22 16:58:31;;;;;;;17.20;9.82;;;18.30;59.80;;;;;;5092102;28;20016;-62
2022/03/22 17:00:57;;;;;;;19.20;10.38;;;18.20;58.90;;;;;;5084475;28;20617;-62
2022/03/22 17:03:24;;;;;;;16.75;10.05;;;18.00;59.30;;;;;;5073457;28;20501;-62
2022/03/22 17:05:50;;;;;;;17.63;10.55;;;18.00;61.00;;;;;;5070491;28;20112;-63
2022/03/22 17:08:16;;;;;;;20.70;10.80;;;17.90;60.30;;;;;;5072642;28;20158;-62
2022/03/22 17:10:41;;;;;;;15.52;9.93;;;17.90;59.80;;;;;;5084475;28;20058;-62
2022/03/22 17:13:09;;;;;;;18.90;10.70;;;17.80;61.10;;;;;;5084370;28;20107;-63
2022/03/22 17:15:34;;;;;;;18.80;10.38;;;17.70;62.60;;;;;;5087440;28;20016;-62
2022/03/22 17:18:02;;;;;;;22.67;11.75;;;17.70;61.20;;;;;;5071289;28;20520;-64
2022/03/22 17:20:28;;;;;;;16.13;9.10;;;17.50;61.60;;;;;;5072108;28;20032;-61
2022/03/22 17:22:54;;;;;;;18.80;9.52;;;17.50;63.50;;;;;;5081049;28;20028;-63
2022/03/22 17:25:21;;;;;;;16.20;10.05;;;17.40;64.00;;;;;;5081132;28;20115;-60
2022/03/22 17:27:48;;;;;;;19.05;10.07;;;17.30;62.90;;;;;;5069706;28;20103;-63
2022/03/22 17:30:14;;;;;;;16.52;9.88;;;17.10;64.70;;;;;;5068747;28;20035;-62
2022/03/22 17:32:41;;;;;;;25.48;9.50;;;17.00;66.20;;;;;;5066754;28;21052;-60
2022/03/22 17:35:07;;;;;;;19.38;9.95;;;16.80;68.60;;;;;;5069882;28;20511;-63
2022/03/22 17:37:33;;;;;;;17.63;9.75;;;16.70;69.00;;;;;;5072225;28;20115;-63
2022/03/22 17:39:59;;;;;;;22.42;8.77;;;16.50;68.70;;;;;;5064580;28;20054;-60
2022/03/22 17:42:25;;;;;;;22.38;8.90;;;16.30;70.40;;;;;;5072066;28;20040;-62
2022/03/22 17:44:51;;;;;;;22.83;8.50;;;16.10;71.70;;;;;;5051965;28;20028;-64
2022/03/22 17:47:17;;;;;;;15.82;8.93;;;16.00;71.90;;;;;;5068982;28;20056;-62
2022/03/22 17:49:45;;;;;;;16.92;9.40;;;15.90;72.00;;;;;;5070406;28;20604;-62
2022/03/22 17:52:11;;;;;;;20.27;8.80;;;15.90;71.20;;;;;;5074635;28;20028;-64
2022/03/22 17:54:37;;;;;;;14.75;8.82;;;15.80;72.40;;;;;;5072008;28;20395;-62
2022/03/22 17:57:03;;;;;;;16.35;8.85;;;15.70;72.00;;;;;;5066374;28;20075;-63
2022/03/22 17:59:28;;;;;;;17.67;8.43;;;15.50;75.60;;;;;;5068138;28;20017;-63
2022/03/22 18:01:54;;;;;;;24.08;8.60;;;14.80;76.80;;;;;;5067357;28;20021;-64
2022/03/22 18:04:20;;;;;;;14.93;8.43;;;14.40;82.40;;;;;;5062943;28;20027;-63
2022/03/22 18:06:46;;;;;;;18.73;9.27;;;14.40;79.90;;;;;;5066187;28;20043;-63
2022/03/22 18:09:11;;;;;;;20.85;10.00;;;14.40;77.60;;;;;;5067550;28;20036;-64
2022/03/22 18:11:43;;;;;;;23.05;9.75;;;14.40;76.60;;;;;;5066605;28;20043;-63
2022/03/22 18:14:17;;;;;;;21.38;10.70;;;14.40;77.40;;;;;;5066012;28;20111;-63
2022/03/22 18:16:44;;;;;;;18.85;9.63;;;14.30;76.00;;;;;;5066175;28;20059;-61
2022/03/22 18:19:10;;;;;;;21.60;9.13;;;14.20;77.90;;;;;;5066509;28;20077;-63
2022/03/22 18:21:36;;;;;;;21.42;9.63;;;14.00;79.10;;;;;;5070696;28;20024;-62
2022/03/22 18:24:02;;;;;;;17.98;8.50;;;14.00;80.60;;;;;;5066277;28;20020;-62
2022/03/22 18:26:28;;;;;;;19.10;9.70;;;13.80;81.20;;;;;;5067056;28;20631;-63
2022/03/22 18:28:54;;;;;;;16.80;9.40;;;13.70;80.70;;;;;;5075611;28;20107;-62
2022/03/22 18:31:20;;;;;;;18.00;10.52;;;13.50;81.50;;;;;;5073327;28;20032;-63
2022/03/22 18:33:46;;;;;;;19.08;9.55;;;13.30;83.00;;;;;;5066334;28;20068;-63
2022/03/22 18:36:12;;;;;;;22.58;9.98;;;13.10;83.90;;;;;;5063729;28;20052;-63
2022/03/22 18:38:37;;;;;;;21.10;9.80;;;12.90;85.20;;;;;;5074058;28;20544;-63
2022/03/22 18:41:03;;;;;;;20.25;9.80;;;12.80;85.40;;;;;;5070621;28;20024;-63
2022/03/22 18:43:28;;;;;;;22.90;10.35;;;12.80;86.60;;;;;;5074504;28;20457;-63
2022/03/22 18:45:54;;;;;;;21.65;10.20;;;12.50;89.30;;;;;;5068524;28;20402;-62
2022/03/22 18:48:19;;;;;;;17.17;9.27;;;12.20;92.40;;;;;;5070916;28;20032;-63
2022/03/22 18:50:45;;;;;;;21.45;9.63;;;11.90;93.20;;;;;;5069297;28;20120;-62
2022/03/22 18:53:11;;;;;;;21.45;10.18;;;12.00;92.30;;;;;;5063885;28;20107;-62
2022/03/22 18:55:37;;;;;;;24.73;10.32;;;11.90;92.00;;;;;;5063330;28;20562;-63
2022/03/22 18:58:03;;;;;;;23.08;9.82;;;11.90;92.20;;;;;;5061463;28;20025;-64
2022/03/22 19:00:30;;;;;;;21.40;9.00;;;11.90;92.20;;;;;;5070751;28;20101;-63
2022/03/22 19:02:56;;;;;;;21.95;9.70;;;12.00;91.70;;;;;;5066804;28;20031;-61
2022/03/22 19:05:21;;;;;;;22.13;9.68;;;12.00;91.40;;;;;;5066675;28;20033;-64
2022/03/22 19:07:47;;;;;;;22.48;9.52;;;12.00;92.10;;;;;;5068703;28;20086;-64
2022/03/22 19:10:13;;;;;;;28.67;11.18;;;12.00;92.00;;;;;;5068807;28;20672;-63
2022/03/22 19:12:39;;;;;;;20.50;10.32;;;11.90;91.70;;;;;;5066252;28;20120;-63
2022/03/22 19:15:06;;;;;;;25.45;9.77;;;11.90;92.30;;;;;;5065421;28;20039;-63
2022/03/22 19:17:54;;;;;;;19.55;9.50;;;11.80;92.70;;;;;;5067704;28;20017;-63
2022/03/22 19:20:22;;;;;;;26.45;10.23;;;11.70;93.70;;;;;;5068213;28;20099;-63
2022/03/22 19:22:55;;;;;;;23.35;9.40;;;11.40;94.60;;;;;;5075395;28;20498;-63
2022/03/22 19:25:25;;;;;;;18.75;8.25;;;11.30;95.30;;;;;;5068960;28;20028;-62
2022/03/22 19:27:52;;;;;;;26.08;9.45;;;11.00;97.20;;;;;;5066624;28;20473;-62
2022/03/22 19:30:18;;;;;;;22.17;9.57;;;11.00;98.70;;;;;;5068754;28;20025;-63
2022/03/22 19:32:58;;;;;;;25.27;9.60;;;10.90;98.60;;;;;;5068973;28;20081;-61
2022/03/22 19:35:26;;;;;;;18.60;8.60;;;10.80;99.60;;;;;;5073363;28;20040;-61
2022/03/22 19:37:57;;;;;;;27.70;10.43;;;10.70;98.90;;;;;;5070176;28;20517;-62